Koosah.INFO

KSEA Weather Observatons

This table shows observations taken by aircraft in the Seattle, WA, US area since 2019-10-18T17:19:33-0700. By default, it is sorted by time observed in ascending order. Click on a column heading to sort by that column instead. Click again on the same column heading to sort in descending order.

Show observations taken in the last:

Return to main page.

Time Observed Time Received Altitude (ft) Latitude Longitude Temperature (˚C) Wind Direction Wind speed (kn) Frequency (MHz) Source
2019-10-18T17:51:00-0700 2019-10-18T17:52:51-0700 1602 47.4272 -122.3078 8.7 198 24 130.025 .N546AS
2019-10-18T17:51:00-0700 2019-10-18T17:52:51-0700 1792 47.423 -122.3078 8.2 209 24 130.025 .N546AS
2019-10-18T17:52:00-0700 2019-10-18T17:53:16-0700 2424 47.4018 -122.308 6.7 223 22 130.025 .N546AS
2019-10-18T17:52:00-0700 2019-10-18T17:53:16-0700 2570 47.3969 -122.3082 6.2 225 22 130.025 .N546AS
2019-10-18T17:53:00-0700 2019-10-18T17:54:58-0700 4508 47.3193 -122.3089 1.7 238 24 130.025 .N546AS
2019-10-18T17:54:00-0700 2019-10-18T17:54:58-0700 5296 47.2959 -122.3037 0.0 242 25 130.025 .N546AS
2019-10-18T17:54:00-0700 2019-10-18T17:54:58-0700 6097 47.2727 -122.2929 -1.7 242 28 130.025 .N546AS
2019-10-18T17:55:00-0700 2019-10-18T17:56:48-0700 8597 47.1984 -122.2551 -6.0 256 37 130.025 .N546AS
2019-10-18T17:55:00-0700 2019-10-18T17:56:48-0700 9166 47.1735 -122.244 -6.7 260 36 130.025 .N546AS
2019-10-18T17:56:00-0700 2019-10-18T17:56:48-0700 10087 47.1493 -122.2328 -8.7 260 36 130.025 .N546AS
2019-10-18T18:01:00-0700 2019-10-18T18:03:18-0700 21265 46.6793 -122.0163 -33.0 266 47 130.025 .N546AS
2019-10-18T18:01:00-0700 2019-10-18T18:03:18-0700 21898 46.6448 -122.0006 -34.7 267 45 130.025 .N546AS
2019-10-18T18:02:00-0700 2019-10-18T18:03:09-0700 467 47.4508 -122.308 8.7 305 6 130.025 .N520AS
2019-10-18T18:02:00-0700 2019-10-18T18:03:09-0700 515 47.4463 -122.308 8.5 279 11 130.025 .N520AS
2019-10-18T18:02:00-0700 2019-10-18T18:03:24-0700 23085 46.5737 -121.9712 -37.5 273 42 130.025 .N546AS
2019-10-18T18:02:00-0700 2019-10-18T18:03:24-0700 23666 46.5373 -121.9573 -39.2 276 45 130.025 .N546AS
2019-10-18T18:02:00-0700 2019-10-18T18:03:24-0700 24289 46.5006 -121.943 -40.7 275 45 130.025 .N546AS
2019-10-18T18:04:00-0700 2019-10-18T18:06:19-0700 26924 46.3178 -121.8737 -46.0 275 63 130.025 .N546AS
2019-10-18T18:04:00-0700 2019-10-18T18:06:19-0700 27384 46.2787 -121.8586 -46.5 277 63 130.025 .N546AS
2019-10-18T18:13:00-0700 2019-10-18T18:22:42-0700 6046 47.4641 -122.7414 -0.7 239 30 130.025 .N309AS
2019-10-18T18:14:00-0700 2019-10-18T18:22:42-0700 6049 47.5313 -122.7038 -0.5 236 30 130.025 .N309AS
2019-10-18T18:15:00-0700 2019-10-18T18:22:42-0700 6067 47.5895 -122.6695 0.0 (missing) (missing) 130.025 .N309AS
2019-10-18T18:31:00-0700 2019-10-18T18:40:55-0700 27945 47.764 -119.9197 -48.5 262 36 130.025 .N323AS
2019-10-18T18:32:00-0700 2019-10-18T18:40:55-0700 26726 47.7761 -120.0807 -45.7 261 40 130.025 .N323AS
2019-10-18T18:33:00-0700 2019-10-18T18:40:55-0700 25997 47.7876 -120.2359 -43.0 (missing) (missing) 130.025 .N323AS
2019-10-18T18:38:00-0700 2019-10-18T18:41:06-0700 21149 47.8416 -121.0025 -33.0 269 43 130.025 .N323AS
2019-10-18T18:39:00-0700 2019-10-18T18:41:06-0700 19015 47.8509 -121.1438 -28.2 266 35 130.025 .N323AS
2019-10-18T18:40:00-0700 2019-10-18T18:41:06-0700 16966 47.8598 -121.2813 -23.7 262 26 130.025 .N323AS
2019-10-18T18:50:00-0700 2019-10-18T18:50:26-0700 12880 47.028 -122.094 -14.0 267 33 130.025 .N929AN
2019-10-18T18:50:00-0700 2019-10-18T18:50:26-0700 13590 47.009 -122.086 -16.0 266 38 130.025 .N929AN
2019-10-18T18:50:00-0700 2019-10-18T18:50:26-0700 14640 46.589 -122.079 -18.0 258 34 130.025 .N929AN
2019-10-18T18:50:00-0700 2019-10-18T18:50:26-0700 15590 46.569 -122.07 -20.0 255 35 130.025 .N929AN
2019-10-18T18:50:00-0700 2019-10-18T18:50:26-0700 16520 46.549 -122.062 -22.0 256 33 130.025 .N929AN